Airfield :
LOGIN :

Register | Disclaimer

   EN    FR    IT 

 










Legend :    VFR   Marginal VFR   IFR   Intensive IFR   Very Intensive IFR
Visi :
Ceiling :
>= 8 km
>= 3000ft
5 to 8 km
1000 to 3000 ft
1500m to 5 km
500 to 1000 ft
800 to 1500m
200 to 500 ft
< 800m
< 200 ft
Symbols :   Thunderstorms  Fog  Heavy snow  Heavy precipitations  Wind > 20 kt
SIGMETs :     Misc.  Thunderstorms  Icing  Turbulence  Mountain Waves  Volcanic Ashes







- Airport Elevation : 33 ft
- IATA code : MHZ


EGUN - RAF Mildenhall

CURRENT METAR :
  • 221156Z AUTO 01009G15KT 9999 CLR 18/06 A3042 RMK AO2 SLP304 T01840056 10185 20112 50001 $

EXPIRED METARs :
  • 221056Z AUTO 32008G16KT 9999 CLR 18/05 A3042 RMK AO2 SLP304 T01800045 $
  • 220956Z AUTO 36010G15KT 9999 CLR 18/07 A3042 RMK AO2 SLP304 T01750070 $

TAF TAF EGUN
Valid from the 22 at 12:00 until the 23 at 18:00 UTC


221205Z 2212/2318 35009KT 9999 SKC QNH3038INS
BECMG 2219/2220 VRB06KT 9999 FEW070 SCT140 QNH3025INS TX21/2312Z TN03/2304Z
No reported NOTAMs for that airfield.



MET'MAP, your aeronautical weather chart ! - Copyright ORBIFLY December 2007 - Disclaimer

ORBIFLY MET'MAP TEAM :

Programming & Development : Alexandra Zaïnal
Concept & Development : Baudouin d'Aumeries
Co-Development & Prog : Marc-Olivier Méhu
Technical & hardware support : Manuel Goepfert

Contact : metmap@orbifly.com




SOURCES & CREDITS :

   NOAA